Time;durP1;ratioP1;P1;durP2;ratioP2;P2;SDS_P1;SDS_P2;PMS_P1;PMS_P2;Temp;Humidity;BMP_temperature;BMP_pressure;BME280_temperature;BME280_humidity;BME280_pressure;Samples;Min_cycle;Max_cycle;Signal;HPM_P1;HPM_P2
2022/05/24 00:01:24;;;;;;;4.07;3.67;;;;;;;15.60;75.34;96748.00;4857608;29;20217;-76
2022/05/24 00:03:52;;;;;;;5.13;3.57;;;;;;;15.55;74.93;96734.44;4857421;29;20206;-77
2022/05/24 00:06:19;;;;;;;6.73;3.60;;;;;;;15.49;75.13;96729.66;4856924;29;20226;-76
2022/05/24 00:08:47;;;;;;;5.63;4.20;;;;;;;15.18;76.35;96732.69;4856432;29;20197;-71
2022/05/24 00:11:15;;;;;;;4.10;3.70;;;;;;;15.09;76.54;96730.69;4856367;29;20279;-70
2022/05/24 00:13:42;;;;;;;5.23;4.23;;;;;;;14.92;76.96;96729.25;4857671;29;20215;-75
2022/05/24 00:16:09;;;;;;;5.50;4.20;;;;;;;14.84;77.37;96728.94;4856492;29;20198;-73
2022/05/24 00:18:36;;;;;;;5.67;3.90;;;;;;;15.10;76.45;96725.41;4857739;29;20641;-77
2022/05/24 00:21:05;;;;;;;5.43;3.50;;;;;;;15.37;74.74;96736.50;4857004;29;20221;-70
2022/05/24 00:23:33;;;;;;;8.20;4.20;;;;;;;15.42;73.90;96728.38;4855958;29;20224;-76
2022/05/24 00:26:07;;;;;;;5.10;3.63;;;;;;;15.69;72.85;96741.28;4857453;29;20283;-75
2022/05/24 00:28:35;;;;;;;5.87;3.90;;;;;;;15.75;72.56;96728.66;4856318;29;20227;-74
2022/05/24 00:31:04;;;;;;;4.23;3.50;;;;;;;15.71;72.20;96726.34;4840886;29;20201;-77
2022/05/24 00:33:33;;;;;;;5.10;3.90;;;;;;;15.78;72.20;96720.59;4856458;29;20237;-72
2022/05/24 00:36:01;;;;;;;6.60;3.50;;;;;;;15.67;72.58;96722.28;4857223;29;20189;-72
2022/05/24 00:38:36;;;;;;;8.10;3.87;;;;;;;15.67;72.10;96727.50;4856836;29;20226;-78
2022/05/24 00:41:27;;;;;;;5.77;4.00;;;;;;;15.67;71.97;96720.53;4855179;29;20191;-71
2022/05/24 00:43:59;;;;;;;8.00;3.73;;;;;;;15.65;72.16;96730.25;4857153;29;20213;-71
2022/05/24 00:46:42;;;;;;;4.80;3.73;;;;;;;15.51;72.56;96722.56;4854628;29;20197;-70
2022/05/24 00:49:20;;;;;;;8.73;3.80;;;;;;;15.50;72.21;96726.09;4856577;29;20287;-70
2022/05/24 00:52:30;;;;;;;4.57;3.80;;;;;;;15.47;72.39;96728.94;4856756;29;20200;-71
2022/05/24 00:55:05;;;;;;;4.20;3.17;;;;;;;15.41;71.59;96722.31;4839175;29;20201;-70
2022/05/24 00:57:42;;;;;;;4.57;3.43;;;;;;;14.98;71.27;96663.63;4855442;29;20207;-71
2022/05/24 01:00:11;;;;;;;6.33;3.80;;;;;;;14.79;72.27;96720.59;4856524;29;20227;-76
2022/05/24 01:02:41;;;;;;;5.73;3.77;;;;;;;14.39;72.88;96724.19;4855634;29;20201;-74
2022/05/24 01:05:30;;;;;;;6.43;3.83;;;;;;;13.94;74.96;96727.13;4856681;29;20192;-72
2022/05/24 01:07:58;;;;;;;6.97;4.07;;;;;;;13.62;76.26;96718.78;4855445;29;20201;-70
2022/05/24 01:10:38;;;;;;;6.40;4.47;;;;;;;13.43;77.62;96720.84;4856282;29;20219;-75
2022/05/24 01:13:18;;;;;;;5.00;4.00;;;;;;;13.36;78.30;96720.38;4856557;29;20688;-70
2022/05/24 01:15:46;;;;;;;6.57;4.00;;;;;;;13.75;77.21;96719.66;4855473;29;20268;-70
2022/05/24 01:18:14;;;;;;;5.27;4.30;;;;;;;13.97;76.61;96716.53;4856443;29;20219;-71
2022/05/24 01:20:45;;;;;;;4.77;3.60;;;;;;;14.37;75.67;96720.84;4855009;29;20256;-70
2022/05/24 01:23:49;;;;;;;4.67;4.17;;;;;;;14.75;73.44;96708.72;4856516;29;20590;-71
2022/05/24 01:26:22;;;;;;;4.37;3.70;;;;;;;14.89;73.00;96713.81;4854920;29;20210;-70
2022/05/24 01:28:59;;;;;;;5.63;4.23;;;;;;;15.04;72.61;96719.78;4855237;29;20202;-78
2022/05/24 01:37:00;;;;;;;4.50;4.10;;;;;;;13.80;77.23;96715.00;4855287;29;20201;-70
2022/05/24 01:39:29;;;;;;;5.10;4.00;;;;;;;13.84;77.50;96713.88;4856186;29;20886;-71
2022/05/24 01:41:57;;;;;;;4.23;3.83;;;;;;;14.05;76.98;96712.50;4855284;29;20199;-70
2022/05/24 01:44:29;;;;;;;6.93;4.13;;;;;;;14.29;76.26;96713.53;4856768;29;20199;-70
2022/05/24 01:46:57;;;;;;;5.23;4.00;;;;;;;14.21;76.65;96705.38;4854995;29;20342;-71
2022/05/24 01:49:29;;;;;;;6.53;4.20;;;;;;;14.50;75.64;96701.72;4854713;29;20691;-70
2022/05/24 01:52:13;;;;;;;5.33;3.77;;;;;;;14.66;75.64;96711.94;4855675;29;20388;-70
2022/05/24 01:54:45;;;;;;;7.20;4.57;;;;;;;14.88;74.74;96709.53;4854776;29;20192;-70
2022/05/24 01:57:19;;;;;;;6.07;4.40;;;;;;;15.02;74.18;96716.44;4854597;29;20747;-77
2022/05/24 01:59:49;;;;;;;6.83;4.87;;;;;;;15.08;73.40;96722.06;4854930;29;20231;-75
2022/05/24 02:02:17;;;;;;;7.23;4.20;;;;;;;14.99;73.91;96717.47;4855712;29;20910;-70
2022/05/24 02:04:44;;;;;;;5.40;4.43;;;;;;;14.90;74.32;96712.88;4854117;29;20255;-70
2022/05/24 02:07:15;;;;;;;5.00;4.30;;;;;;;14.79;74.67;96714.53;4853551;29;20730;-70
2022/05/24 02:09:46;;;;;;;8.67;4.07;;;;;;;14.72;74.88;96710.66;4855762;29;20900;-75
2022/05/24 02:12:16;;;;;;;6.00;4.03;;;;;;;14.37;74.59;96726.06;4852958;29;20196;-72
2022/05/24 02:15:04;;;;;;;5.60;4.17;;;;;;;14.03;76.17;96722.19;4854332;29;20297;-77
2022/05/24 02:17:44;;;;;;;4.80;4.30;;;;;;;13.83;77.62;96735.63;4853538;29;20216;-77
2022/05/24 02:20:17;;;;;;;7.40;4.47;;;;;;;13.83;78.76;96733.00;4853330;29;20590;-77
2022/05/24 02:22:45;;;;;;;5.27;4.30;;;;;;;13.99;78.07;96736.34;4855530;29;20202;-75
2022/05/24 02:25:15;;;;;;;6.80;4.10;;;;;;;14.15;77.86;96731.81;4854305;29;20699;-74
2022/05/24 02:27:45;;;;;;;6.27;4.93;;;;;;;14.38;77.09;96728.56;4855477;29;20235;-76
2022/05/24 02:30:19;;;;;;;5.73;4.00;;;;;;;14.30;76.23;96740.44;4853054;29;20204;-76
2022/05/24 02:32:46;;;;;;;5.57;4.67;;;;;;;14.14;76.99;96743.13;4855057;29;20710;-76
2022/05/24 02:35:14;;;;;;;8.93;4.40;;;;;;;14.04;77.49;96739.47;4855245;29;20203;-76
2022/05/24 02:37:42;;;;;;;8.93;4.87;;;;;;;14.27;77.00;96736.22;4852955;29;20649;-76
2022/05/24 02:42:56;;;;;;;7.03;3.80;;;;;;;13.84;78.51;96737.31;4853934;29;20282;-75
2022/05/24 02:45:24;;;;;;;6.57;4.40;;;;;;;13.67;79.40;96729.72;4854836;29;20297;-75
2022/05/24 02:47:51;;;;;;;6.60;4.47;;;;;;;13.65;79.78;96729.81;4854215;29;20292;-77
2022/05/24 02:50:20;;;;;;;8.57;4.37;;;;;;;13.62;80.43;96735.19;4854474;29;20215;-76
2022/05/24 02:52:47;;;;;;;5.57;4.93;;;;;;;13.55;80.72;96735.69;4855116;29;20201;-74
2022/05/24 02:55:16;;;;;;;8.63;4.87;;;;;;;13.37;81.15;96710.81;4853937;29;20209;-75
2022/05/24 02:57:43;;;;;;;8.20;4.70;;;;;;;13.59;80.44;96747.56;4855170;29;20687;-78
2022/05/24 03:00:14;;;;;;;5.97;5.00;;;;;;;13.41;80.47;96744.38;4853896;29;20330;-71
2022/05/24 03:02:41;;;;;;;9.10;6.80;;;;;;;13.46;80.48;96757.06;4855036;29;20274;-76
2022/05/24 03:05:12;;;;;;;7.63;4.50;;;;;;;13.52;79.94;96759.28;4855129;29;20191;-77
2022/05/24 03:10:28;;;;;;;6.60;4.50;;;;;;;14.15;77.76;96765.66;4858732;29;20688;-77
2022/05/24 03:15:44;;;;;;;10.13;5.03;;;;;;;14.36;76.38;96756.47;4858473;29;20268;-76
2022/05/24 03:18:13;;;;;;;8.43;4.80;;;;;;;13.95;78.02;96758.25;4858371;29;20301;-79
2022/05/24 03:20:41;;;;;;;6.73;4.93;;;;;;;13.80;78.95;96759.25;4857133;29;20772;-71
2022/05/24 03:23:08;;;;;;;6.00;4.67;;;;;;;13.79;79.13;96765.38;4856585;29;20293;-77
2022/05/24 03:25:36;;;;;;;9.27;5.57;;;;;;;13.93;78.51;96760.13;4857147;29;20199;-77
2022/05/24 03:28:05;;;;;;;7.13;4.93;;;;;;;13.88;79.05;96764.81;4858613;29;20297;-75
2022/05/24 03:30:36;;;;;;;6.63;4.93;;;;;;;13.79;79.27;96774.03;4857237;29;20227;-78
2022/05/24 03:33:03;;;;;;;7.40;5.00;;;;;;;14.00;78.80;96778.81;4858066;29;20619;-77
2022/05/24 03:35:30;;;;;;;6.77;4.77;;;;;;;14.14;77.87;96769.19;4858069;29;20202;-76
2022/05/24 03:37:58;;;;;;;6.23;5.00;;;;;;;14.38;76.89;96770.25;4857092;29;20207;-78
2022/05/24 03:40:25;;;;;;;5.20;4.27;;;;;;;14.24;77.04;96772.88;4857939;29;20326;-72
2022/05/24 03:42:54;;;;;;;6.60;4.53;;;;;;;14.14;76.83;96777.00;4857200;29;20259;-76
2022/05/24 03:45:22;;;;;;;8.30;4.87;;;;;;;14.18;77.02;96762.84;4858254;29;20295;-78
2022/05/24 03:47:50;;;;;;;6.43;4.60;;;;;;;14.49;76.73;96774.75;4856887;29;20211;-75
2022/05/24 03:50:18;;;;;;;6.17;4.80;;;;;;;14.51;76.10;96778.94;4856547;29;20228;-75
2022/05/24 03:52:46;;;;;;;6.97;4.70;;;;;;;14.65;75.58;96776.25;4857580;29;20287;-75
2022/05/24 03:55:13;;;;;;;6.77;4.70;;;;;;;15.16;73.92;96768.47;4857089;29;20192;-76
2022/05/24 04:00:33;;;;;;;6.93;3.87;;;;;;;15.78;70.91;96772.00;4856688;29;20229;-78
2022/05/24 04:03:01;;;;;;;9.97;4.50;;;;;;;15.90;70.25;96761.50;4857628;29;20185;-71
2022/05/24 04:05:29;;;;;;;7.27;4.63;;;;;;;16.06;69.79;96782.13;4856823;29;20301;-79
2022/05/24 04:07:58;;;;;;;4.93;4.20;;;;;;;16.09;69.59;96769.69;4857828;29;20275;-76
2022/05/24 04:10:28;;;;;;;4.43;4.03;;;;;;;15.63;71.02;96773.91;4856592;29;20192;-77
2022/05/24 04:12:56;;;;;;;6.17;4.50;;;;;;;15.38;72.20;96779.09;4855248;29;20601;-77
2022/05/24 04:15:23;;;;;;;5.13;4.50;;;;;;;15.44;72.67;96779.56;4857684;29;20201;-75
2022/05/24 04:17:52;;;;;;;6.17;4.00;;;;;;;15.30;72.97;96779.66;4856029;29;20239;-77
2022/05/24 04:20:22;;;;;;;5.73;4.30;;;;;;;14.86;74.91;96762.75;4857471;29;20224;-78
2022/05/24 04:22:54;;;;;;;7.90;4.30;;;;;;;14.95;74.80;96775.16;4856953;29;20283;-79
2022/05/24 04:25:22;;;;;;;7.00;4.97;;;;;;;15.06;75.33;96764.84;4855308;29;20200;-74
2022/05/24 04:27:49;;;;;;;6.20;5.07;;;;;;;14.99;76.77;96777.44;4840912;29;20243;-71
2022/05/24 04:30:21;;;;;;;4.97;4.27;;;;;;;14.79;77.56;96780.56;4856219;29;20212;-74
2022/05/24 04:32:50;;;;;;;6.60;4.70;;;;;;;14.88;77.15;96789.53;4857374;29;20200;-73
2022/05/24 04:35:17;;;;;;;7.70;4.70;;;;;;;15.40;75.42;96793.72;4855581;29;20201;-75
2022/05/24 04:37:44;;;;;;;5.20;4.60;;;;;;;15.96;71.77;96797.63;4856852;29;20210;-71
2022/05/24 04:40:12;;;;;;;5.40;4.50;;;;;;;16.19;71.47;96790.78;4856657;29;20807;-73
2022/05/24 04:42:39;;;;;;;6.17;4.40;;;;;;;15.81;72.40;96790.88;4855015;29;20202;-76
2022/05/24 04:45:11;;;;;;;5.37;3.90;;;;;;;16.15;71.35;96792.78;4855710;29;20708;-73
2022/05/24 04:47:38;;;;;;;5.33;4.03;;;;;;;16.44;70.11;96808.97;4855916;29;20266;-73
2022/05/24 04:50:09;;;;;;;8.83;4.10;;;;;;;16.68;69.90;96803.75;4857038;29;20292;-75
2022/05/24 04:52:38;;;;;;;8.03;4.13;;;;;;;16.97;69.26;96807.66;4855809;29;20202;-72
2022/05/24 04:55:09;;;;;;;5.13;3.83;;;;;;;17.07;68.48;96798.16;4855380;29;20599;-73
2022/05/24 04:57:37;;;;;;;5.60;3.83;;;;;;;17.10;68.38;96784.84;4855159;29;20700;-78
2022/05/24 05:00:06;;;;;;;12.03;4.53;;;;;;;17.28;68.33;96778.22;4852383;29;20248;-76
2022/05/24 05:02:34;;;;;;;6.73;4.13;;;;;;;17.49;67.45;96789.69;4855256;29;20668;-73
2022/05/24 05:05:01;;;;;;;5.70;3.30;;;;;;;17.36;67.50;96788.94;4855150;29;20205;-72
2022/05/24 05:07:28;;;;;;;3.63;3.30;;;;;;;17.46;66.88;96795.13;4855596;29;20234;-75
2022/05/24 05:09:59;;;;;;;4.80;3.67;;;;;;;17.87;66.09;96794.56;4855324;29;20344;-77
2022/05/24 05:12:28;;;;;;;5.57;3.67;;;;;;;18.24;64.88;96797.69;4854798;29;20284;-76
2022/05/24 05:14:55;;;;;;;5.33;3.57;;;;;;;18.52;64.90;96792.78;4854876;29;20255;-74
2022/05/24 05:17:23;;;;;;;8.00;4.23;;;;;;;18.64;63.60;96793.56;4853880;29;20199;-77
2022/05/24 05:19:50;;;;;;;6.43;3.67;;;;;;;18.76;63.88;96803.06;4854829;29;20223;-77
2022/05/24 05:22:23;;;;;;;5.50;4.10;;;;;;;18.73;63.47;96797.25;4853338;29;20207;-76
2022/05/24 05:24:51;;;;;;;6.40;3.77;;;;;;;18.84;63.45;96794.53;4855953;29;20223;-74
2022/05/24 05:27:19;;;;;;;7.07;4.33;;;;;;;19.23;63.29;96793.84;4854375;29;20202;-72
2022/05/24 05:32:34;;;;;;;6.80;3.97;;;;;;;19.83;60.21;96787.81;4855522;29;20203;-75
2022/05/24 05:35:02;;;;;;;4.23;3.67;;;;;;;19.91;59.71;96809.84;4854609;29;20231;-71
2022/05/24 05:37:32;;;;;;;6.30;4.03;;;;;;;19.81;60.34;96803.72;4854554;29;20228;-72
2022/05/24 05:40:02;;;;;;;6.77;3.80;;;;;;;19.92;59.71;96808.06;4852616;29;20199;-71
2022/05/24 05:42:29;;;;;;;5.57;3.50;;;;;;;19.58;60.09;96804.06;4854023;29;20199;-72
2022/05/24 05:44:57;;;;;;;4.27;3.87;;;;;;;18.78;62.70;96801.13;4854813;29;20223;-75
2022/05/24 05:47:24;;;;;;;5.50;3.90;;;;;;;18.69;62.94;96796.66;4854884;29;20326;-71
2022/05/24 05:49:51;;;;;;;6.90;4.00;;;;;;;18.77;62.21;96790.78;4855230;29;20210;-71
2022/05/24 05:52:18;;;;;;;7.13;3.90;;;;;;;18.40;62.85;96792.91;4852848;29;20227;-75
2022/05/24 05:54:45;;;;;;;7.77;4.07;;;;;;;18.47;62.75;96808.06;4855287;29;20199;-75
2022/05/24 05:57:13;;;;;;;5.90;4.00;;;;;;;18.17;64.06;96799.16;4854749;29;20735;-76
2022/05/24 05:59:40;;;;;;;7.53;4.03;;;;;;;18.46;62.71;96798.53;4855128;29;20679;-74
2022/05/24 06:02:08;;;;;;;6.93;4.50;;;;;;;18.99;61.24;96801.16;4852676;29;20699;-74
2022/05/24 06:04:35;;;;;;;8.90;4.10;;;;;;;19.28;60.77;96792.53;4854494;29;20290;-71
2022/05/24 06:07:03;;;;;;;9.23;4.70;;;;;;;19.88;59.06;96801.41;4854352;29;20236;-74
2022/05/24 06:09:31;;;;;;;5.60;3.57;;;;;;;20.11;58.37;96808.13;4852744;29;20204;-76
2022/05/24 06:11:59;;;;;;;6.33;3.60;;;;;;;20.17;57.01;96791.81;4853722;29;20256;-73
2022/05/24 06:14:26;;;;;;;4.67;3.80;;;;;;;20.44;56.21;96813.09;4853565;29;20704;-75
2022/05/24 06:17:17;;;;;;;10.33;5.77;;;;;;;20.67;55.50;96817.13;4851951;29;20236;-73
2022/05/24 06:19:45;;;;;;;6.03;3.70;;;;;;;20.43;55.82;96813.22;4854736;29;20222;-75
2022/05/24 06:22:12;;;;;;;5.70;3.40;;;;;;;20.54;54.67;96802.56;4841807;29;20264;-73
2022/05/24 06:24:40;;;;;;;7.47;3.80;;;;;;;21.08;53.60;96815.22;4854449;29;20196;-71
2022/05/24 06:27:07;;;;;;;9.40;4.47;;;;;;;21.37;51.98;96811.56;4840406;29;20201;-72
2022/05/24 06:29:36;;;;;;;11.30;4.40;;;;;;;21.33;50.45;96798.84;4835114;29;20206;-75
2022/05/24 06:32:04;;;;;;;10.20;3.87;;;;;;;21.30;50.24;96804.38;4849684;29;20293;-76
2022/05/24 06:34:31;;;;;;;6.90;3.80;;;;;;;21.15;50.20;96817.16;4850073;29;20201;-74
2022/05/24 06:36:59;;;;;;;7.40;3.50;;;;;;;21.23;49.22;96811.16;4835191;29;20654;-74
2022/05/24 06:39:27;;;;;;;9.17;3.70;;;;;;;21.15;49.59;96811.03;4835178;29;20198;-74
2022/05/24 06:42:00;;;;;;;6.87;3.37;;;;;;;20.44;50.70;96810.47;4836612;29;20225;-74
2022/05/24 06:44:33;;;;;;;6.00;3.20;;;;;;;20.85;49.11;96815.50;4835672;29;20261;-73
2022/05/24 06:47:00;;;;;;;9.57;3.60;;;;;;;20.65;47.30;96816.41;4836898;29;20212;-73
2022/05/24 06:49:28;;;;;;;4.73;2.70;;;;;;;19.69;49.14;96811.84;4819510;29;20203;-72
2022/05/24 06:51:55;;;;;;;8.07;4.10;;;;;;;19.91;51.42;96807.22;4846030;29;20911;-75
2022/05/24 06:54:22;;;;;;;7.07;3.20;;;;;;;19.94;50.45;96816.66;4853050;29;20195;-74
2022/05/24 06:56:50;;;;;;;5.60;3.00;;;;;;;20.15;50.64;96815.59;4853817;29;20672;-73
2022/05/24 07:04:49;;;;;;;5.17;2.33;;;;;;;20.88;49.46;96804.66;4854402;29;20196;-74
2022/05/24 07:07:17;;;;;;;5.70;2.43;;;;;;;21.39;47.47;96795.63;4852586;29;20744;-74
2022/05/24 07:09:44;;;;;;;2.67;2.40;;;;;;;21.55;45.39;96804.59;4852048;29;20277;-72
2022/05/24 07:12:11;;;;;;;4.53;2.63;;;;;;;21.83;45.55;96798.44;4853901;29;20197;-72
2022/05/24 07:14:38;;;;;;;6.07;2.97;;;;;;;21.63;45.96;96802.09;4853023;29;20281;-73
2022/05/24 07:17:05;;;;;;;7.53;2.90;;;;;;;21.99;45.06;96799.63;4853010;29;20199;-74
2022/05/24 07:19:32;;;;;;;4.57;2.33;;;;;;;22.39;44.18;96802.72;4852167;29;20210;-74
2022/05/24 07:22:00;;;;;;;4.63;3.20;;;;;;;22.87;43.73;96802.41;4837692;29;20238;-73
2022/05/24 07:24:28;;;;;;;2.63;1.97;;;;;;;22.79;43.76;96797.06;4852171;29;20282;-76
2022/05/24 07:26:55;;;;;;;7.97;2.67;;;;;;;22.46;43.73;96793.25;4853809;29;20211;-75
2022/05/24 07:29:23;;;;;;;6.07;3.47;;;;;;;22.06;43.74;96792.75;4854488;29;20546;-74
2022/05/24 07:31:50;;;;;;;3.00;2.50;;;;;;;21.88;45.14;96790.09;4851988;29;20202;-74
2022/05/24 07:34:19;;;;;;;2.40;1.90;;;;;;;22.13;44.49;96789.41;4854431;29;20196;-75
2022/05/24 07:36:46;;;;;;;6.23;2.10;;;;;;;22.22;44.07;96795.59;4853367;29;20215;-74
2022/05/24 07:39:13;;;;;;;3.87;2.50;;;;;;;21.88;44.54;96790.88;4852534;29;20226;-73
2022/05/24 07:47:35;;;;;;;5.83;2.23;;;;;;;21.04;45.12;96793.63;4852553;29;20208;-75
2022/05/24 07:50:06;;;;;;;5.23;2.70;;;;;;;21.32;44.34;96782.19;4851521;29;20230;-72
2022/05/24 07:52:33;;;;;;;6.10;2.00;;;;;;;21.62;45.24;96766.13;4856756;29;20193;-71
2022/05/24 07:55:00;;;;;;;4.23;2.20;;;;;;;22.13;43.87;96780.66;4856630;29;20683;-72
2022/05/24 07:58:08;;;;;;;5.80;3.00;;;;;;;22.44;43.71;96782.81;4854680;29;20206;-72
2022/05/24 08:01:29;;;;;;;5.00;2.90;;;;;;;22.88;43.79;96789.03;4830713;29;20249;-74
2022/05/24 08:04:50;;;;;;;2.93;1.77;;;;;;;22.98;43.10;96768.66;4836281;29;20208;-74
2022/05/24 08:08:10;;;;;;;7.37;2.73;;;;;;;22.96;42.14;96786.47;4837358;29;20710;-75
2022/05/24 08:11:31;;;;;;;7.40;2.60;;;;;;;22.79;42.83;96787.34;4838060;29;20291;-73
2022/05/24 08:14:28;;;;;;;16.70;9.27;;;;;;;22.56;42.01;96786.09;4836661;29;20292;-73
2022/05/24 08:16:56;;;;;;;5.17;2.50;;;;;;;22.20;42.41;96779.06;4838766;29;20235;-73
2022/05/24 08:19:23;;;;;;;3.93;2.63;;;;;;;21.97;44.33;96768.09;4851853;29;20208;-74
2022/05/24 08:21:50;;;;;;;3.70;2.60;;;;;;;21.90;44.68;96782.03;4838535;29;20699;-74
2022/05/24 08:24:17;;;;;;;5.10;2.50;;;;;;;22.23;43.56;96769.06;4837328;29;20220;-73
2022/05/24 08:26:44;;;;;;;7.30;4.47;;;;;;;22.34;43.48;96771.50;4838644;29;20631;-76
2022/05/24 08:29:11;;;;;;;4.13;2.50;;;;;;;22.61;44.69;96784.66;4837689;29;20223;-74
2022/05/24 08:31:38;;;;;;;4.03;2.80;;;;;;;22.72;43.64;96778.34;4837865;29;20257;-74
2022/05/24 08:34:06;;;;;;;9.40;3.17;;;;;;;22.93;43.50;96775.38;4860646;29;20251;-73
2022/05/24 08:36:33;;;;;;;5.27;2.80;;;;;;;22.45;43.75;96755.44;4838570;29;20211;-73
2022/05/24 08:39:00;;;;;;;13.10;6.43;;;;;;;22.43;44.17;96767.13;4840571;29;20203;-74
2022/05/24 08:42:03;;;;;;;4.47;3.10;;;;;;;22.73;44.44;96763.34;4855633;29;20235;-75
2022/05/24 08:50:19;;;;;;;10.47;5.30;;;;;;;23.40;41.98;96764.38;4855368;29;20209;-75
2022/05/24 08:53:02;;;;;;;5.53;3.27;;;;;;;22.58;44.49;96763.88;4857094;29;20200;-73
2022/05/24 08:55:40;;;;;;;6.50;4.00;;;;;;;22.57;44.71;96745.50;4856569;29;20194;-74
2022/05/24 08:58:30;;;;;;;7.43;2.37;;;;;;;22.87;44.55;96762.78;4855306;29;20193;-74
2022/05/24 09:00:57;;;;;;;3.33;2.70;;;;;;;23.18;44.01;96766.69;4855563;29;20220;-75
2022/05/24 09:03:26;;;;;;;4.30;3.23;;;;;;;23.32;44.74;96769.63;4853463;29;20211;-77
2022/05/24 09:06:07;;;;;;;6.93;3.23;;;;;;;23.61;43.95;96764.00;4856102;29;20234;-75
2022/05/24 09:08:55;;;;;;;6.93;3.30;;;;;;;23.96;43.90;96769.16;4855848;29;20687;-76
2022/05/24 09:11:39;;;;;;;2.80;2.47;;;;;;;23.58;43.62;96766.97;4853430;29;20189;-74
2022/05/24 09:14:22;;;;;;;5.27;2.43;;;;;;;23.25;44.94;96767.69;4854733;29;20202;-72
2022/05/24 09:17:02;;;;;;;5.40;3.10;;;;;;;23.80;43.99;96762.97;4855029;29;20193;-73
2022/05/24 09:19:38;;;;;;;3.33;2.60;;;;;;;23.43;44.11;96765.91;4855242;29;20190;-72
2022/05/24 09:22:06;;;;;;;5.27;3.37;;;;;;;23.07;45.90;96759.00;4855565;29;20250;-73
2022/05/24 09:24:47;;;;;;;5.10;3.03;;;;;;;22.59;47.98;96754.94;4852931;29;20276;-73
2022/05/24 09:27:14;;;;;;;5.07;2.50;;;;;;;22.87;46.79;96766.28;4856316;29;20680;-73
2022/05/24 09:30:02;;;;;;;5.80;3.07;;;;;;;22.89;47.66;96755.56;4855178;29;20204;-72
2022/05/24 09:32:46;;;;;;;3.07;2.70;;;;;;;22.95;46.62;96754.94;4855324;29;20210;-75
2022/05/24 09:35:16;;;;;;;4.97;3.00;;;;;;;23.35;45.65;96763.16;4854187;29;20612;-74
2022/05/24 09:37:54;;;;;;;4.47;2.70;;;;;;;23.62;45.61;96749.78;4853107;29;20286;-73
2022/05/24 09:40:24;;;;;;;5.30;2.70;;;;;;;23.80;44.84;96747.88;4855402;29;20203;-74
2022/05/24 09:42:53;;;;;;;3.73;3.00;;;;;;;23.61;46.06;96737.56;4854190;29;20247;-75
2022/05/24 09:45:27;;;;;;;5.07;3.17;;;;;;;23.77;45.96;96742.94;4853508;29;20284;-74
2022/05/24 09:47:58;;;;;;;6.13;3.33;;;;;;;23.85;46.08;96745.63;4853889;29;20204;-75
2022/05/24 09:50:36;;;;;;;5.90;2.80;;;;;;;24.09;45.53;96747.56;4852949;29;20335;-74
2022/05/24 09:53:10;;;;;;;6.23;3.10;;;;;;;24.28;44.43;96746.47;4853905;29;20206;-75
2022/05/24 09:55:40;;;;;;;5.13;3.30;;;;;;;24.39;44.89;96751.44;4852567;29;20288;-75
2022/05/24 09:58:39;;;;;;;8.00;3.30;;;;;;;24.46;44.57;96761.22;4854612;29;20243;-75
2022/05/24 10:01:13;;;;;;;3.50;2.57;;;;;;;24.37;44.65;96750.78;4853450;29;20194;-75
2022/05/24 10:03:46;;;;;;;7.77;2.93;;;;;;;23.72;46.48;96732.00;4852030;29;20282;-75
2022/05/24 10:06:30;;;;;;;4.77;2.90;;;;;;;23.50;47.70;96751.06;4853097;29;20250;-73
2022/05/24 10:09:01;;;;;;;3.67;3.03;;;;;;;23.53;47.94;96747.28;4854317;29;20271;-74
2022/05/24 10:11:31;;;;;;;5.50;2.90;;;;;;;23.47;47.32;96745.25;4853804;29;20194;-74
2022/05/24 10:14:23;;;;;;;4.90;3.10;;;;;;;23.32;46.94;96753.75;4854730;29;20188;-74
2022/05/24 10:17:02;;;;;;;5.43;2.73;;;;;;;22.83;47.80;96748.22;4853433;29;20196;-73
2022/05/24 10:19:44;;;;;;;3.63;2.87;;;;;;;22.97;48.76;96742.41;4852622;29;20232;-75
2022/05/24 10:22:20;;;;;;;5.03;2.60;;;;;;;22.84;48.87;96745.44;4854259;29;20432;-74
2022/05/24 10:25:15;;;;;;;5.53;3.47;;;;;;;22.84;48.94;96756.00;4851953;29;20195;-75
2022/05/24 10:28:01;;;;;;;5.27;3.00;;;;;;;23.00;48.17;96742.13;4853411;29;20221;-74
2022/05/24 10:30:57;;;;;;;14.67;7.30;;;;;;;23.06;48.30;96730.94;4854647;29;20200;-73
2022/05/24 10:40:16;;;;;;;5.27;3.63;;;;;;;22.65;49.78;96743.78;4854004;29;20201;-73
2022/05/24 10:43:38;;;;;;;8.97;4.30;;;;;;;22.56;49.87;96730.66;4833763;29;20694;-75
2022/05/24 10:46:44;;;;;;;7.70;4.00;;;;;;;22.59;50.71;96727.72;4819074;29;20589;-75
2022/05/24 10:49:41;;;;;;;5.13;3.53;;;;;;;22.53;51.18;96728.28;4835676;29;20213;-72
2022/05/24 10:52:37;;;;;;;6.00;3.40;;;;;;;22.20;51.28;96721.88;4835692;29;20198;-74
2022/05/24 10:55:13;;;;;;;4.23;2.83;;;;;;;22.17;51.30;96721.34;4847013;29;20225;-73
2022/05/24 10:57:51;;;;;;;5.70;3.20;;;;;;;22.36;51.49;96706.19;4854428;29;20675;-74
2022/05/24 11:00:23;;;;;;;3.73;3.23;;;;;;;22.57;51.42;96713.81;4821443;29;20581;-76
2022/05/24 11:03:08;;;;;;;6.07;3.53;;;;;;;22.66;53.96;96707.66;4852541;29;20229;-74
2022/05/24 11:05:42;;;;;;;4.77;3.00;;;;;;;22.96;51.83;96709.88;4837794;29;20245;-74
2022/05/24 11:08:34;;;;;;;6.50;3.90;;;;;;;22.97;52.83;96700.13;4852644;29;20264;-75
2022/05/24 11:11:33;;;;;;;6.33;3.50;;;;;;;23.12;52.07;96691.47;4854246;29;20206;-77
2022/05/24 11:14:12;;;;;;;6.33;3.10;;;;;;;23.20;49.97;96680.16;4854171;29;20240;-75
2022/05/24 11:16:42;;;;;;;4.37;3.20;;;;;;;23.23;50.20;96670.09;4853374;29;20214;-75
2022/05/24 11:19:14;;;;;;;8.30;3.57;;;;;;;23.05;50.41;96666.69;4853304;29;20692;-74
2022/05/24 11:21:53;;;;;;;4.90;3.60;;;;;;;23.25;50.06;96662.00;4851698;29;20227;-75
2022/05/24 11:24:52;;;;;;;7.07;3.53;;;;;;;22.90;50.61;96662.13;4852531;29;20727;-76
2022/05/24 11:27:28;;;;;;;6.03;3.23;;;;;;;23.04;50.50;96674.78;4834387;29;20207;-77
2022/05/24 11:30:17;;;;;;;7.47;3.83;;;;;;;22.96;50.50;96698.47;4855650;29;20210;-76
2022/05/24 11:32:50;;;;;;;3.80;3.40;;;;;;;22.90;50.93;96733.41;4855698;29;20207;-75
2022/05/24 11:35:29;;;;;;;6.30;3.57;;;;;;;22.69;51.15;96780.47;4857512;29;20290;-78
2022/05/24 11:38:12;;;;;;;5.37;3.47;;;;;;;22.38;51.12;96844.09;4857203;29;20196;-74
2022/05/24 11:41:02;;;;;;;8.07;3.73;;;;;;;22.16;54.80;96905.19;4857484;29;20211;-76
2022/05/24 11:43:43;;;;;;;9.10;4.33;;;;;;;21.29;62.57;96944.97;4855309;29;20239;-76
2022/05/24 11:46:52;;;;;;;7.97;4.47;;;;;;;20.54;69.16;96956.03;4855714;29;20633;-77
2022/05/24 11:49:19;;;;;;;7.17;4.13;;;;;;;20.14;71.18;96973.50;4849948;29;20677;-77
2022/05/24 11:51:51;;;;;;;4.43;3.60;;;;;;;19.54;72.05;96981.28;4856754;29;20232;-73
2022/05/24 11:54:18;;;;;;;3.10;2.80;;;;;;;19.01;71.57;97032.84;4857775;29;20196;-76
2022/05/24 11:57:01;;;;;;;6.17;3.80;;;;;;;18.40;72.95;97008.75;4855139;29;20633;-75
2022/05/24 11:59:40;;;;;;;4.87;3.53;;;;;;;18.16;72.37;96941.66;4857132;29;20206;-76
2022/05/24 12:02:24;;;;;;;5.67;4.00;;;;;;;17.81;75.14;96912.91;4850279;29;20255;-77
2022/05/24 12:08:22;;;;;;;5.83;4.40;;;;;;;17.50;78.50;96759.09;4856223;29;20213;-76
2022/05/24 12:11:10;;;;;;;6.43;4.00;;;;;;;17.39;80.04;96677.91;4856627;29;20206;-75
2022/05/24 12:13:48;;;;;;;5.77;3.57;;;;;;;17.40;80.81;96698.72;4855293;29;20633;-75
2022/05/24 12:16:39;;;;;;;4.33;3.50;;;;;;;17.34;81.74;96677.44;4858127;29;20362;-74
2022/05/24 12:19:10;;;;;;;4.33;2.93;;;;;;;17.57;81.17;96666.84;4838938;29;20203;-80
2022/05/24 12:21:57;;;;;;;2.60;2.40;;;;;;;17.96;80.28;96677.72;4848949;29;20195;-78
2022/05/24 12:24:37;;;;;;;4.37;2.60;;;;;;;18.32;78.73;96696.50;4855846;29;20265;-74
2022/05/24 12:27:51;;;;;;;3.87;2.63;;;;;;;19.12;77.40;96728.31;4855011;29;20220;-77
2022/05/24 12:30:18;;;;;;;4.67;3.50;;;;;;;19.73;77.98;96737.03;4835394;29;20203;-78
2022/05/24 12:32:46;;;;;;;5.93;3.43;;;;;;;20.11;76.36;96740.56;4836515;29;20219;-74
2022/05/24 12:35:15;;;;;;;5.43;3.30;;;;;;;20.47;75.60;96747.03;4836038;29;20205;-76
2022/05/24 12:37:54;;;;;;;6.93;3.47;;;;;;;20.75;73.73;96756.72;4855246;29;20216;-76
2022/05/24 12:40:27;;;;;;;8.53;4.67;;;;;;;20.78;74.76;96761.72;4844700;29;20603;-76
2022/05/24 12:43:00;;;;;;;7.00;4.70;;;;;;;20.67;75.04;96764.47;4852006;29;20270;-76
2022/05/24 12:45:33;;;;;;;4.87;3.70;;;;;;;20.91;73.89;96757.00;4850987;29;20204;-74
2022/05/24 12:48:01;;;;;;;7.60;4.60;;;;;;;20.63;74.67;96757.84;4835627;29;20240;-76
2022/05/24 12:50:40;;;;;;;5.33;3.57;;;;;;;20.89;72.90;96740.53;4839386;29;20197;-76
2022/05/24 12:53:10;;;;;;;4.23;3.23;;;;;;;21.37;72.04;96753.59;4855323;29;20727;-76